KHQM Airport Information

Runway Information
Runway 06 Length 5000 ft width 150 ft
Elevation 18 ft Threshold 0 ft Heading 80
Runway 24 Length 5000 ft Width 150 ft
Elevation 15 ft Threshold 0 ft Heading 260
Airport Frequencies
Type ASOS Name ASOS Frequency 135.775 MHZ
Type CNTR Name SEATTLE CN Frequency 128.3 MHZ
Type RDO Name SEATTLE RD Frequency 122.2 MHZ
Type UNIC Name CTAF/UNICO Frequency 122.7 MHZ
Airport Navaids
Type NDB Name Abern Frequency 236 KHZ
Type VORTAC Name Hoquiam Frequency 117700 KHZ
Airport Weather Information & NOTAM
ADDS - METARS form results

(2216 UTC 19 September 2018)
Data provider http://aviationweather.gov/metar/data/
 
METAR text: KHQM 192206Z AUTO 23007KT 10SM FEW008 OVC015 14/14 A3011 RMK AO2 RAE2155 P0000 T01440139
Conditions at: KHQM (HOQUIAM , WA, US) observed 2206 UTC 19 September 2018
Temperature: 14.4°C (58°F)
Dewpoint: 13.9°C (57°F) [RH = 97%]
Pressure (altimeter): 30.11 inches Hg (1019.7 mb)
Winds: from the SW (230 degrees) at 8 MPH (7 knots; 3.6 m/s)
Visibility: 10 or more miles (16+ km)
Ceiling: 1500 feet AGL
Clouds: few clouds at 800 feet AGL
overcast cloud deck at 1500 feet AGL
Weather: automated observation with no human augmentation;
there may or may not be significant weather present at this time

METAR text: KHQM 192153Z AUTO 22007KT 5SM -RA BR BKN007 OVC015 14/14 A3011 RMK AO2 RAB46 CIG 005V012 SLP201 P0001 T01440139
Conditions at: KHQM (HOQUIAM , WA, US) observed 2153 UTC 19 September 2018
Temperature: 14.4°C (58°F)
Dewpoint: 13.9°C (57°F) [RH = 97%]
Pressure (altimeter): 30.11 inches Hg (1019.7 mb)
[Sea-level pressure: 1020.1 mb]
Winds: from the SW (220 degrees) at 8 MPH (7 knots; 3.6 m/s)
Visibility: 5 miles ( 8 km)
Ceiling: 700 feet AGL
Clouds: broken clouds at 700 feet AGL
overcast cloud deck at 1500 feet AGL
Weather: -RA BR  (light rain, mist)

METAR text: KHQM 192133Z AUTO 24008KT 2 1/2SM BR BKN007 OVC015 14/13 A3012 RMK AO2 CIG 005V013 P0001 T01440133
Conditions at: KHQM (HOQUIAM , WA, US) observed 2133 UTC 19 September 2018
Temperature: 14.4°C (58°F)
Dewpoint: 13.3°C (56°F) [RH = 93%]
Pressure (altimeter): 30.12 inches Hg (1020.1 mb)
Winds: from the WSW (240 degrees) at 9 MPH (8 knots; 4.1 m/s)
Visibility: 2.50 miles (4.02 km)
Ceiling: 700 feet AGL
Clouds: broken clouds at 700 feet AGL
overcast cloud deck at 1500 feet AGL
Weather: BR  (mist)

METAR text: KHQM 192124Z AUTO 23008KT 3SM BR SCT007 BKN010 OVC017 14/13 A3012 RMK AO2 P0001 T01440133
Conditions at: KHQM (HOQUIAM , WA, US) observed 2124 UTC 19 September 2018
Temperature: 14.4°C (58°F)
Dewpoint: 13.3°C (56°F) [RH = 93%]
Pressure (altimeter): 30.12 inches Hg (1020.1 mb)
Winds: from the SW (230 degrees) at 9 MPH (8 knots; 4.1 m/s)
Visibility: 3 miles ( 5 km)
Ceiling: 1000 feet AGL
Clouds: scattered clouds at 700 feet AGL
broken clouds at 1000 feet AGL
overcast cloud deck at 1700 feet AGL
Weather: BR  (mist)

Forecast for: KHQM (HOQUIAM , WA, US)
Text: KHQM 192126Z 1921/2018 23011KT P6SM VCSH BKN020 OVC025
Forecast period: 2100 UTC 19 September 2018 to 0300 UTC 20 September 2018
Forecast type: FROM: standard forecast or significant change
Winds: from the SW (230 degrees) at 13 MPH (11 knots; 5.7 m/s)
Visibility: 6 or more miles 10+ km)
Ceiling: 2000 feet AGL
Clouds: broken clouds at 2000 feet AGL
overcast cloud deck at 2500 feet AGL
Weather: VCSH  (showers in vicinity)
Text: TEMPO 1921/2001 3SM BR BKN007
Forecast period: 2100 UTC 19 September 2018 to 0100 UTC 20 September 2018
Forecast type: TEMPORARY: The following changes expected for less than half the time period
Visibility: 3 miles (5 km)
Ceiling: 700 feet AGL
Clouds: broken clouds at 700 feet AGL
Weather: BR  (mist)
Text: FM200300 26006KT P6SM BKN020 OVC050
Forecast period: 0300 to 0800 UTC 20 September 2018
Forecast type: FROM: standard forecast or significant change
Winds: from the W (260 degrees) at 7 MPH (6 knots; 3.1 m/s)
Visibility: 6 or more miles 10+ km)
Ceiling: 2000 feet AGL
Clouds: broken clouds at 2000 feet AGL
overcast cloud deck at 5000 feet AGL
Weather: no significant weather forecast for this period
Text: FM200800 VRB04KT 6SM BR BKN010 OVC030
Forecast period: 0800 to 1800 UTC 20 September 2018
Forecast type: FROM: standard forecast or significant change
Winds: variable direction winds at 5 MPH (4 knots; 2.1 m/s)
Visibility: 6 miles (10 km)
Ceiling: 1000 feet AGL
Clouds: broken clouds at 1000 feet AGL
overcast cloud deck at 3000 feet AGL
Weather: BR  (mist)